sensor_id;sensor_type;location;lat;lon;timestamp;P1;durP1;ratioP1;P2;durP2;ratioP2
15841;SDS011;8021;48.022;11.812;2022-10-20T00:00:29;0.40;;;0.40;;
15841;SDS011;8021;48.022;11.812;2022-10-20T00:02:56;0.32;;;0.32;;
15841;SDS011;8021;48.022;11.812;2022-10-20T00:05:24;0.40;;;0.40;;
15841;SDS011;8021;48.022;11.812;2022-10-20T00:07:51;0.40;;;0.40;;
15841;SDS011;8021;48.022;11.812;2022-10-20T00:10:18;0.40;;;0.40;;
15841;SDS011;8021;48.022;11.812;2022-10-20T00:12:46;0.30;;;0.30;;
15841;SDS011;8021;48.022;11.812;2022-10-20T00:15:15;0.40;;;0.40;;
15841;SDS011;8021;48.022;11.812;2022-10-20T00:17:43;0.30;;;0.30;;
15841;SDS011;8021;48.022;11.812;2022-10-20T00:20:11;0.40;;;0.40;;
15841;SDS011;8021;48.022;11.812;2022-10-20T00:22:39;0.30;;;0.30;;
15841;SDS011;8021;48.022;11.812;2022-10-20T00:25:07;0.32;;;0.32;;
15841;SDS011;8021;48.022;11.812;2022-10-20T00:27:35;0.30;;;0.30;;
15841;SDS011;8021;48.022;11.812;2022-10-20T00:30:02;0.38;;;0.38;;
15841;SDS011;8021;48.022;11.812;2022-10-20T00:32:31;0.50;;;0.50;;
15841;SDS011;8021;48.022;11.812;2022-10-20T00:34:59;0.40;;;0.40;;
15841;SDS011;8021;48.022;11.812;2022-10-20T00:37:27;0.30;;;0.30;;
15841;SDS011;8021;48.022;11.812;2022-10-20T00:39:54;0.40;;;0.40;;
15841;SDS011;8021;48.022;11.812;2022-10-20T00:42:22;0.30;;;0.30;;
15841;SDS011;8021;48.022;11.812;2022-10-20T00:44:51;0.30;;;0.30;;
15841;SDS011;8021;48.022;11.812;2022-10-20T00:47:20;0.45;;;0.45;;
15841;SDS011;8021;48.022;11.812;2022-10-20T00:49:49;0.40;;;0.40;;
15841;SDS011;8021;48.022;11.812;2022-10-20T00:52:17;0.30;;;0.30;;
15841;SDS011;8021;48.022;11.812;2022-10-20T00:54:46;0.47;;;0.47;;
15841;SDS011;8021;48.022;11.812;2022-10-20T00:57:14;0.40;;;0.40;;
15841;SDS011;8021;48.022;11.812;2022-10-20T00:59:42;0.35;;;0.35;;
15841;SDS011;8021;48.022;11.812;2022-10-20T01:02:10;0.40;;;0.40;;
15841;SDS011;8021;48.022;11.812;2022-10-20T01:04:38;0.40;;;0.40;;
15841;SDS011;8021;48.022;11.812;2022-10-20T01:07:07;0.40;;;0.40;;
15841;SDS011;8021;48.022;11.812;2022-10-20T01:09:34;0.30;;;0.30;;
15841;SDS011;8021;48.022;11.812;2022-10-20T01:12:06;0.50;;;0.50;;
15841;SDS011;8021;48.022;11.812;2022-10-20T01:14:37;0.38;;;0.38;;
15841;SDS011;8021;48.022;11.812;2022-10-20T01:17:09;0.40;;;0.40;;
15841;SDS011;8021;48.022;11.812;2022-10-20T01:22:29;0.40;;;0.40;;
15841;SDS011;8021;48.022;11.812;2022-10-20T01:25:00;0.40;;;0.40;;
15841;SDS011;8021;48.022;11.812;2022-10-20T01:27:35;0.40;;;0.40;;
15841;SDS011;8021;48.022;11.812;2022-10-20T01:30:08;0.40;;;0.40;;
15841;SDS011;8021;48.022;11.812;2022-10-20T01:35:20;0.40;;;0.40;;
15841;SDS011;8021;48.022;11.812;2022-10-20T01:37:50;0.30;;;0.30;;
15841;SDS011;8021;48.022;11.812;2022-10-20T01:40:21;0.40;;;0.40;;
15841;SDS011;8021;48.022;11.812;2022-10-20T01:42:51;0.30;;;0.30;;
15841;SDS011;8021;48.022;11.812;2022-10-20T01:45:20;0.50;;;0.50;;
15841;SDS011;8021;48.022;11.812;2022-10-20T01:47:49;0.30;;;0.30;;
15841;SDS011;8021;48.022;11.812;2022-10-20T01:50:18;0.32;;;0.32;;
15841;SDS011;8021;48.022;11.812;2022-10-20T01:52:46;0.40;;;0.40;;
15841;SDS011;8021;48.022;11.812;2022-10-20T01:55:14;0.30;;;0.30;;
15841;SDS011;8021;48.022;11.812;2022-10-20T01:57:45;0.40;;;0.40;;
15841;SDS011;8021;48.022;11.812;2022-10-20T02:00:17;0.50;;;0.50;;
15841;SDS011;8021;48.022;11.812;2022-10-20T02:02:49;0.40;;;0.40;;
15841;SDS011;8021;48.022;11.812;2022-10-20T02:05:27;0.50;;;0.50;;
15841;SDS011;8021;48.022;11.812;2022-10-20T02:07:59;0.50;;;0.50;;
15841;SDS011;8021;48.022;11.812;2022-10-20T02:10:28;0.38;;;0.38;;
15841;SDS011;8021;48.022;11.812;2022-10-20T02:12:59;0.30;;;0.30;;
15841;SDS011;8021;48.022;11.812;2022-10-20T02:15:30;0.30;;;0.30;;
15841;SDS011;8021;48.022;11.812;2022-10-20T02:17:59;0.40;;;0.40;;
15841;SDS011;8021;48.022;11.812;2022-10-20T02:20:27;0.30;;;0.30;;
15841;SDS011;8021;48.022;11.812;2022-10-20T02:22:56;0.40;;;0.40;;
15841;SDS011;8021;48.022;11.812;2022-10-20T02:25:23;0.40;;;0.40;;
15841;SDS011;8021;48.022;11.812;2022-10-20T02:27:52;0.40;;;0.40;;
15841;SDS011;8021;48.022;11.812;2022-10-20T02:30:20;0.50;;;0.50;;
15841;SDS011;8021;48.022;11.812;2022-10-20T02:32:50;0.40;;;0.40;;
15841;SDS011;8021;48.022;11.812;2022-10-20T02:35:19;0.30;;;0.30;;
15841;SDS011;8021;48.022;11.812;2022-10-20T02:37:48;0.30;;;0.30;;
15841;SDS011;8021;48.022;11.812;2022-10-20T02:40:15;0.52;;;0.52;;
15841;SDS011;8021;48.022;11.812;2022-10-20T02:42:43;0.32;;;0.32;;
15841;SDS011;8021;48.022;11.812;2022-10-20T02:45:10;0.43;;;0.43;;
15841;SDS011;8021;48.022;11.812;2022-10-20T02:47:38;0.47;;;0.47;;
15841;SDS011;8021;48.022;11.812;2022-10-20T02:50:07;0.40;;;0.40;;
15841;SDS011;8021;48.022;11.812;2022-10-20T02:52:35;0.40;;;0.40;;
15841;SDS011;8021;48.022;11.812;2022-10-20T02:55:03;0.38;;;0.38;;
15841;SDS011;8021;48.022;11.812;2022-10-20T02:57:31;0.47;;;0.47;;
15841;SDS011;8021;48.022;11.812;2022-10-20T02:59:58;0.40;;;0.40;;
15841;SDS011;8021;48.022;11.812;2022-10-20T03:02:26;0.40;;;0.40;;
15841;SDS011;8021;48.022;11.812;2022-10-20T03:04:53;0.32;;;0.32;;
15841;SDS011;8021;48.022;11.812;2022-10-20T03:07:22;0.40;;;0.40;;
15841;SDS011;8021;48.022;11.812;2022-10-20T03:09:50;0.40;;;0.40;;
15841;SDS011;8021;48.022;11.812;2022-10-20T03:12:17;0.40;;;0.40;;
15841;SDS011;8021;48.022;11.812;2022-10-20T03:14:45;0.30;;;0.30;;
15841;SDS011;8021;48.022;11.812;2022-10-20T03:17:12;0.40;;;0.40;;
15841;SDS011;8021;48.022;11.812;2022-10-20T03:19:40;0.40;;;0.40;;
15841;SDS011;8021;48.022;11.812;2022-10-20T03:22:07;0.40;;;0.40;;
15841;SDS011;8021;48.022;11.812;2022-10-20T03:24:36;0.30;;;0.30;;
15841;SDS011;8021;48.022;11.812;2022-10-20T03:27:03;0.40;;;0.40;;
15841;SDS011;8021;48.022;11.812;2022-10-20T03:29:31;0.30;;;0.30;;
15841;SDS011;8021;48.022;11.812;2022-10-20T03:31:59;0.40;;;0.40;;
15841;SDS011;8021;48.022;11.812;2022-10-20T03:34:27;0.38;;;0.38;;
15841;SDS011;8021;48.022;11.812;2022-10-20T03:36:54;0.40;;;0.40;;
15841;SDS011;8021;48.022;11.812;2022-10-20T03:39:22;0.45;;;0.45;;
15841;SDS011;8021;48.022;11.812;2022-10-20T03:41:51;0.40;;;0.40;;
15841;SDS011;8021;48.022;11.812;2022-10-20T03:44:18;0.52;;;0.52;;
15841;SDS011;8021;48.022;11.812;2022-10-20T03:46:46;0.40;;;0.40;;
15841;SDS011;8021;48.022;11.812;2022-10-20T03:49:13;0.30;;;0.30;;
15841;SDS011;8021;48.022;11.812;2022-10-20T03:51:41;0.40;;;0.40;;
15841;SDS011;8021;48.022;11.812;2022-10-20T03:54:08;0.47;;;0.47;;
15841;SDS011;8021;48.022;11.812;2022-10-20T03:56:36;0.40;;;0.40;;
15841;SDS011;8021;48.022;11.812;2022-10-20T03:59:04;0.40;;;0.40;;
15841;SDS011;8021;48.022;11.812;2022-10-20T04:01:34;0.30;;;0.30;;
15841;SDS011;8021;48.022;11.812;2022-10-20T04:04:02;0.40;;;0.40;;
15841;SDS011;8021;48.022;11.812;2022-10-20T04:06:29;0.40;;;0.40;;
15841;SDS011;8021;48.022;11.812;2022-10-20T04:08:57;0.40;;;0.40;;
15841;SDS011;8021;48.022;11.812;2022-10-20T04:11:25;0.40;;;0.40;;
15841;SDS011;8021;48.022;11.812;2022-10-20T04:13:53;0.40;;;0.40;;
15841;SDS011;8021;48.022;11.812;2022-10-20T04:16:22;0.30;;;0.30;;
15841;SDS011;8021;48.022;11.812;2022-10-20T04:18:50;0.40;;;0.40;;
15841;SDS011;8021;48.022;11.812;2022-10-20T04:21:17;0.38;;;0.38;;
15841;SDS011;8021;48.022;11.812;2022-10-20T04:23:45;0.40;;;0.40;;
15841;SDS011;8021;48.022;11.812;2022-10-20T04:26:13;0.40;;;0.40;;
15841;SDS011;8021;48.022;11.812;2022-10-20T04:28:41;0.38;;;0.38;;
15841;SDS011;8021;48.022;11.812;2022-10-20T04:31:08;0.40;;;0.40;;
15841;SDS011;8021;48.022;11.812;2022-10-20T04:33:37;0.40;;;0.40;;
15841;SDS011;8021;48.022;11.812;2022-10-20T04:36:05;0.40;;;0.40;;
15841;SDS011;8021;48.022;11.812;2022-10-20T04:38:33;0.47;;;0.47;;
15841;SDS011;8021;48.022;11.812;2022-10-20T04:41:02;0.50;;;0.50;;
15841;SDS011;8021;48.022;11.812;2022-10-20T04:43:29;0.30;;;0.30;;
15841;SDS011;8021;48.022;11.812;2022-10-20T04:46:00;0.40;;;0.40;;
15841;SDS011;8021;48.022;11.812;2022-10-20T04:48:33;0.40;;;0.40;;
15841;SDS011;8021;48.022;11.812;2022-10-20T04:51:03;0.30;;;0.30;;
15841;SDS011;8021;48.022;11.812;2022-10-20T04:53:31;0.50;;;0.50;;
15841;SDS011;8021;48.022;11.812;2022-10-20T04:55:59;0.30;;;0.30;;
15841;SDS011;8021;48.022;11.812;2022-10-20T04:58:26;0.40;;;0.40;;
15841;SDS011;8021;48.022;11.812;2022-10-20T05:00:58;0.40;;;0.40;;
15841;SDS011;8021;48.022;11.812;2022-10-20T05:03:26;0.40;;;0.40;;
15841;SDS011;8021;48.022;11.812;2022-10-20T05:05:53;0.50;;;0.50;;
15841;SDS011;8021;48.022;11.812;2022-10-20T05:08:22;0.40;;;0.40;;
15841;SDS011;8021;48.022;11.812;2022-10-20T05:10:50;0.38;;;0.38;;
15841;SDS011;8021;48.022;11.812;2022-10-20T05:13:17;0.40;;;0.40;;
15841;SDS011;8021;48.022;11.812;2022-10-20T05:15:50;0.40;;;0.40;;
15841;SDS011;8021;48.022;11.812;2022-10-20T05:18:17;0.40;;;0.40;;
15841;SDS011;8021;48.022;11.812;2022-10-20T05:20:45;0.40;;;0.40;;
15841;SDS011;8021;48.022;11.812;2022-10-20T05:23:35;0.45;;;0.45;;
15841;SDS011;8021;48.022;11.812;2022-10-20T05:26:03;0.40;;;0.40;;
15841;SDS011;8021;48.022;11.812;2022-10-20T05:28:30;0.50;;;0.50;;
15841;SDS011;8021;48.022;11.812;2022-10-20T05:30:59;0.40;;;0.40;;
15841;SDS011;8021;48.022;11.812;2022-10-20T05:33:27;0.38;;;0.38;;
15841;SDS011;8021;48.022;11.812;2022-10-20T05:35:54;0.30;;;0.30;;
15841;SDS011;8021;48.022;11.812;2022-10-20T05:38:22;0.30;;;0.30;;
15841;SDS011;8021;48.022;11.812;2022-10-20T05:40:51;0.30;;;0.30;;
15841;SDS011;8021;48.022;11.812;2022-10-20T05:43:19;0.35;;;0.35;;
15841;SDS011;8021;48.022;11.812;2022-10-20T05:45:51;0.35;;;0.35;;
15841;SDS011;8021;48.022;11.812;2022-10-20T05:48:19;0.45;;;0.45;;
15841;SDS011;8021;48.022;11.812;2022-10-20T05:50:47;0.30;;;0.30;;
15841;SDS011;8021;48.022;11.812;2022-10-20T05:53:14;0.45;;;0.45;;
15841;SDS011;8021;48.022;11.812;2022-10-20T05:55:41;0.30;;;0.30;;
15841;SDS011;8021;48.022;11.812;2022-10-20T05:58:10;0.40;;;0.40;;
15841;SDS011;8021;48.022;11.812;2022-10-20T06:00:38;0.32;;;0.32;;
15841;SDS011;8021;48.022;11.812;2022-10-20T06:03:17;0.43;;;0.43;;
15841;SDS011;8021;48.022;11.812;2022-10-20T06:05:47;0.40;;;0.40;;
15841;SDS011;8021;48.022;11.812;2022-10-20T06:08:14;0.35;;;0.35;;
15841;SDS011;8021;48.022;11.812;2022-10-20T06:11:07;0.43;;;0.43;;
15841;SDS011;8021;48.022;11.812;2022-10-20T06:13:36;0.40;;;0.40;;
15841;SDS011;8021;48.022;11.812;2022-10-20T06:16:04;0.40;;;0.40;;
15841;SDS011;8021;48.022;11.812;2022-10-20T06:18:31;0.50;;;0.50;;
15841;SDS011;8021;48.022;11.812;2022-10-20T06:21:00;0.30;;;0.30;;
15841;SDS011;8021;48.022;11.812;2022-10-20T06:23:27;0.40;;;0.40;;
15841;SDS011;8021;48.022;11.812;2022-10-20T06:26:00;0.50;;;0.50;;
15841;SDS011;8021;48.022;11.812;2022-10-20T06:28:28;0.40;;;0.40;;
15841;SDS011;8021;48.022;11.812;2022-10-20T06:30:56;0.40;;;0.40;;
15841;SDS011;8021;48.022;11.812;2022-10-20T06:33:24;0.40;;;0.40;;
15841;SDS011;8021;48.022;11.812;2022-10-20T06:35:52;0.30;;;0.30;;
15841;SDS011;8021;48.022;11.812;2022-10-20T06:38:24;0.40;;;0.40;;
15841;SDS011;8021;48.022;11.812;2022-10-20T06:40:51;0.40;;;0.40;;
15841;SDS011;8021;48.022;11.812;2022-10-20T06:43:19;0.30;;;0.30;;
15841;SDS011;8021;48.022;11.812;2022-10-20T06:45:52;0.30;;;0.30;;
15841;SDS011;8021;48.022;11.812;2022-10-20T06:48:21;0.30;;;0.30;;
15841;SDS011;8021;48.022;11.812;2022-10-20T06:50:49;0.30;;;0.30;;
15841;SDS011;8021;48.022;11.812;2022-10-20T06:53:16;0.30;;;0.30;;
15841;SDS011;8021;48.022;11.812;2022-10-20T06:55:44;0.40;;;0.40;;
15841;SDS011;8021;48.022;11.812;2022-10-20T06:58:11;0.40;;;0.40;;
15841;SDS011;8021;48.022;11.812;2022-10-20T07:00:39;0.40;;;0.40;;
15841;SDS011;8021;48.022;11.812;2022-10-20T07:03:06;0.50;;;0.50;;
15841;SDS011;8021;48.022;11.812;2022-10-20T07:05:35;0.40;;;0.40;;
15841;SDS011;8021;48.022;11.812;2022-10-20T07:08:02;0.60;;;0.60;;
15841;SDS011;8021;48.022;11.812;2022-10-20T07:10:30;0.32;;;0.32;;
15841;SDS011;8021;48.022;11.812;2022-10-20T07:12:57;0.50;;;0.50;;
15841;SDS011;8021;48.022;11.812;2022-10-20T07:15:25;0.30;;;0.30;;
15841;SDS011;8021;48.022;11.812;2022-10-20T07:17:52;0.40;;;0.40;;
15841;SDS011;8021;48.022;11.812;2022-10-20T07:20:20;0.40;;;0.40;;
15841;SDS011;8021;48.022;11.812;2022-10-20T07:22:49;0.30;;;0.30;;
15841;SDS011;8021;48.022;11.812;2022-10-20T07:25:16;0.50;;;0.50;;
15841;SDS011;8021;48.022;11.812;2022-10-20T07:27:47;0.40;;;0.40;;
15841;SDS011;8021;48.022;11.812;2022-10-20T07:30:14;0.40;;;0.40;;
15841;SDS011;8021;48.022;11.812;2022-10-20T07:32:42;0.40;;;0.40;;
15841;SDS011;8021;48.022;11.812;2022-10-20T07:35:10;0.38;;;0.38;;
15841;SDS011;8021;48.022;11.812;2022-10-20T07:37:37;0.40;;;0.40;;
15841;SDS011;8021;48.022;11.812;2022-10-20T07:40:07;0.40;;;0.40;;
15841;SDS011;8021;48.022;11.812;2022-10-20T07:42:34;0.40;;;0.40;;
15841;SDS011;8021;48.022;11.812;2022-10-20T07:45:03;0.50;;;0.40;;
15841;SDS011;8021;48.022;11.812;2022-10-20T07:47:30;0.50;;;0.50;;
15841;SDS011;8021;48.022;11.812;2022-10-20T07:50:04;0.40;;;0.40;;
15841;SDS011;8021;48.022;11.812;2022-10-20T07:52:33;0.40;;;0.40;;
15841;SDS011;8021;48.022;11.812;2022-10-20T07:55:00;0.30;;;0.30;;
15841;SDS011;8021;48.022;11.812;2022-10-20T07:57:49;0.50;;;0.50;;
15841;SDS011;8021;48.022;11.812;2022-10-20T08:00:17;0.40;;;0.40;;
15841;SDS011;8021;48.022;11.812;2022-10-20T08:02:44;0.50;;;0.50;;
15841;SDS011;8021;48.022;11.812;2022-10-20T08:05:12;0.40;;;0.40;;
15841;SDS011;8021;48.022;11.812;2022-10-20T08:07:39;0.30;;;0.30;;
15841;SDS011;8021;48.022;11.812;2022-10-20T08:10:07;0.30;;;0.30;;
15841;SDS011;8021;48.022;11.812;2022-10-20T08:12:35;0.40;;;0.40;;
15841;SDS011;8021;48.022;11.812;2022-10-20T08:15:05;0.30;;;0.30;;
15841;SDS011;8021;48.022;11.812;2022-10-20T08:17:34;0.40;;;0.40;;
15841;SDS011;8021;48.022;11.812;2022-10-20T08:20:02;0.40;;;0.40;;
15841;SDS011;8021;48.022;11.812;2022-10-20T08:22:42;0.40;;;0.40;;
15841;SDS011;8021;48.022;11.812;2022-10-20T08:25:11;0.30;;;0.30;;
15841;SDS011;8021;48.022;11.812;2022-10-20T08:27:39;0.50;;;0.50;;
15841;SDS011;8021;48.022;11.812;2022-10-20T08:30:09;0.40;;;0.40;;
15841;SDS011;8021;48.022;11.812;2022-10-20T08:32:50;0.30;;;0.30;;
15841;SDS011;8021;48.022;11.812;2022-10-20T08:35:18;0.38;;;0.38;;
15841;SDS011;8021;48.022;11.812;2022-10-20T08:37:46;0.40;;;0.40;;
15841;SDS011;8021;48.022;11.812;2022-10-20T08:40:14;0.40;;;0.40;;
15841;SDS011;8021;48.022;11.812;2022-10-20T08:42:42;0.40;;;0.40;;
15841;SDS011;8021;48.022;11.812;2022-10-20T08:45:14;0.30;;;0.30;;
15841;SDS011;8021;48.022;11.812;2022-10-20T08:47:42;0.30;;;0.30;;
15841;SDS011;8021;48.022;11.812;2022-10-20T08:50:11;0.40;;;0.40;;
15841;SDS011;8021;48.022;11.812;2022-10-20T08:52:41;0.40;;;0.40;;
15841;SDS011;8021;48.022;11.812;2022-10-20T08:55:10;0.50;;;0.50;;
15841;SDS011;8021;48.022;11.812;2022-10-20T08:57:41;0.40;;;0.40;;
15841;SDS011;8021;48.022;11.812;2022-10-20T09:00:15;0.40;;;0.40;;
15841;SDS011;8021;48.022;11.812;2022-10-20T09:02:43;0.35;;;0.35;;
15841;SDS011;8021;48.022;11.812;2022-10-20T09:05:11;0.40;;;0.40;;
15841;SDS011;8021;48.022;11.812;2022-10-20T09:07:44;0.43;;;0.43;;
15841;SDS011;8021;48.022;11.812;2022-10-20T09:10:17;0.30;;;0.30;;
15841;SDS011;8021;48.022;11.812;2022-10-20T09:12:49;0.30;;;0.30;;
15841;SDS011;8021;48.022;11.812;2022-10-20T09:15:18;0.30;;;0.30;;
15841;SDS011;8021;48.022;11.812;2022-10-20T09:17:47;0.40;;;0.40;;
15841;SDS011;8021;48.022;11.812;2022-10-20T09:20:18;0.40;;;0.40;;
15841;SDS011;8021;48.022;11.812;2022-10-20T09:22:47;0.30;;;0.30;;
15841;SDS011;8021;48.022;11.812;2022-10-20T09:25:15;0.30;;;0.30;;
15841;SDS011;8021;48.022;11.812;2022-10-20T09:27:44;0.30;;;0.30;;
15841;SDS011;8021;48.022;11.812;2022-10-20T09:30:12;0.30;;;0.30;;
15841;SDS011;8021;48.022;11.812;2022-10-20T09:32:41;0.40;;;0.40;;
15841;SDS011;8021;48.022;11.812;2022-10-20T09:35:22;0.30;;;0.30;;
15841;SDS011;8021;48.022;11.812;2022-10-20T09:37:55;0.30;;;0.20;;
15841;SDS011;8021;48.022;11.812;2022-10-20T09:40:23;0.40;;;0.40;;
15841;SDS011;8021;48.022;11.812;2022-10-20T09:42:52;0.30;;;0.30;;
15841;SDS011;8021;48.022;11.812;2022-10-20T09:45:20;0.30;;;0.30;;
15841;SDS011;8021;48.022;11.812;2022-10-20T09:47:51;0.30;;;0.30;;
15841;SDS011;8021;48.022;11.812;2022-10-20T09:50:21;0.30;;;0.30;;
15841;SDS011;8021;48.022;11.812;2022-10-20T09:52:49;0.20;;;0.20;;
15841;SDS011;8021;48.022;11.812;2022-10-20T09:55:19;0.30;;;0.30;;
15841;SDS011;8021;48.022;11.812;2022-10-20T09:57:48;0.20;;;0.20;;
15841;SDS011;8021;48.022;11.812;2022-10-20T10:00:23;0.25;;;0.20;;
15841;SDS011;8021;48.022;11.812;2022-10-20T10:03:12;0.30;;;0.30;;
15841;SDS011;8021;48.022;11.812;2022-10-20T10:05:45;0.30;;;0.25;;
15841;SDS011;8021;48.022;11.812;2022-10-20T10:08:13;0.30;;;0.20;;
15841;SDS011;8021;48.022;11.812;2022-10-20T10:10:41;0.40;;;0.40;;
15841;SDS011;8021;48.022;11.812;2022-10-20T10:13:18;0.35;;;0.35;;
15841;SDS011;8021;48.022;11.812;2022-10-20T10:15:57;0.30;;;0.25;;
15841;SDS011;8021;48.022;11.812;2022-10-20T10:18:26;0.30;;;0.30;;
15841;SDS011;8021;48.022;11.812;2022-10-20T10:20:58;0.30;;;0.30;;
15841;SDS011;8021;48.022;11.812;2022-10-20T10:23:26;0.30;;;0.30;;
15841;SDS011;8021;48.022;11.812;2022-10-20T10:25:54;0.30;;;0.30;;
15841;SDS011;8021;48.022;11.812;2022-10-20T10:28:28;0.20;;;0.20;;
15841;SDS011;8021;48.022;11.812;2022-10-20T10:31:07;0.30;;;0.30;;
15841;SDS011;8021;48.022;11.812;2022-10-20T10:33:36;0.30;;;0.30;;
15841;SDS011;8021;48.022;11.812;2022-10-20T10:36:05;0.20;;;0.20;;
15841;SDS011;8021;48.022;11.812;2022-10-20T10:38:33;0.30;;;0.30;;
15841;SDS011;8021;48.022;11.812;2022-10-20T10:41:03;0.20;;;0.20;;
15841;SDS011;8021;48.022;11.812;2022-10-20T10:43:33;0.20;;;0.20;;
15841;SDS011;8021;48.022;11.812;2022-10-20T10:46:04;0.30;;;0.20;;
15841;SDS011;8021;48.022;11.812;2022-10-20T10:48:56;0.30;;;0.20;;
15841;SDS011;8021;48.022;11.812;2022-10-20T10:51:29;0.20;;;0.20;;
15841;SDS011;8021;48.022;11.812;2022-10-20T10:54:01;0.20;;;0.10;;
15841;SDS011;8021;48.022;11.812;2022-10-20T10:56:39;0.30;;;0.20;;
15841;SDS011;8021;48.022;11.812;2022-10-20T10:59:10;0.20;;;0.10;;
15841;SDS011;8021;48.022;11.812;2022-10-20T11:01:43;0.20;;;0.20;;
15841;SDS011;8021;48.022;11.812;2022-10-20T11:04:22;0.20;;;0.20;;
15841;SDS011;8021;48.022;11.812;2022-10-20T11:06:55;0.20;;;0.20;;
15841;SDS011;8021;48.022;11.812;2022-10-20T11:09:26;0.20;;;0.20;;
15841;SDS011;8021;48.022;11.812;2022-10-20T11:12:06;0.20;;;0.20;;
15841;SDS011;8021;48.022;11.812;2022-10-20T11:14:37;0.30;;;0.20;;
15841;SDS011;8021;48.022;11.812;2022-10-20T11:17:37;0.22;;;0.20;;
15841;SDS011;8021;48.022;11.812;2022-10-20T11:20:11;0.20;;;0.20;;
15841;SDS011;8021;48.022;11.812;2022-10-20T11:22:43;0.20;;;0.20;;
15841;SDS011;8021;48.022;11.812;2022-10-20T11:25:15;0.20;;;0.20;;
15841;SDS011;8021;48.022;11.812;2022-10-20T11:27:45;0.20;;;0.20;;
15841;SDS011;8021;48.022;11.812;2022-10-20T11:30:13;0.30;;;0.20;;
15841;SDS011;8021;48.022;11.812;2022-10-20T11:32:44;0.20;;;0.20;;
15841;SDS011;8021;48.022;11.812;2022-10-20T11:35:18;0.30;;;0.20;;
15841;SDS011;8021;48.022;11.812;2022-10-20T11:37:48;0.30;;;0.20;;
15841;SDS011;8021;48.022;11.812;2022-10-20T11:40:20;0.20;;;0.20;;
15841;SDS011;8021;48.022;11.812;2022-10-20T11:42:50;0.30;;;0.22;;
15841;SDS011;8021;48.022;11.812;2022-10-20T11:45:26;0.20;;;0.20;;
15841;SDS011;8021;48.022;11.812;2022-10-20T11:47:55;0.20;;;0.10;;
15841;SDS011;8021;48.022;11.812;2022-10-20T11:56:12;0.20;;;0.20;;
15841;SDS011;8021;48.022;11.812;2022-10-20T11:58:52;0.20;;;0.15;;
15841;SDS011;8021;48.022;11.812;2022-10-20T12:01:26;0.20;;;0.20;;
15841;SDS011;8021;48.022;11.812;2022-10-20T12:12:17;0.20;;;0.20;;
15841;SDS011;8021;48.022;11.812;2022-10-20T12:14:47;0.30;;;0.20;;
15841;SDS011;8021;48.022;11.812;2022-10-20T12:17:20;0.28;;;0.20;;
15841;SDS011;8021;48.022;11.812;2022-10-20T12:19:49;0.30;;;0.20;;
15841;SDS011;8021;48.022;11.812;2022-10-20T12:22:37;0.20;;;0.20;;
15841;SDS011;8021;48.022;11.812;2022-10-20T12:30:41;0.30;;;0.20;;
15841;SDS011;8021;48.022;11.812;2022-10-20T12:33:15;0.20;;;0.20;;
15841;SDS011;8021;48.022;11.812;2022-10-20T12:38:26;0.20;;;0.20;;
15841;SDS011;8021;48.022;11.812;2022-10-20T12:40:56;0.30;;;0.30;;
15841;SDS011;8021;48.022;11.812;2022-10-20T12:43:26;0.20;;;0.20;;
15841;SDS011;8021;48.022;11.812;2022-10-20T12:46:02;0.20;;;0.20;;
15841;SDS011;8021;48.022;11.812;2022-10-20T12:48:32;0.28;;;0.20;;
15841;SDS011;8021;48.022;11.812;2022-10-20T12:51:01;0.20;;;0.10;;
15841;SDS011;8021;48.022;11.812;2022-10-20T12:53:29;0.20;;;0.20;;
15841;SDS011;8021;48.022;11.812;2022-10-20T12:55:57;0.20;;;0.20;;
15841;SDS011;8021;48.022;11.812;2022-10-20T12:58:26;0.20;;;0.20;;
15841;SDS011;8021;48.022;11.812;2022-10-20T13:01:09;0.28;;;0.20;;
15841;SDS011;8021;48.022;11.812;2022-10-20T13:04:14;0.20;;;0.20;;
15841;SDS011;8021;48.022;11.812;2022-10-20T13:06:52;0.30;;;0.20;;
15841;SDS011;8021;48.022;11.812;2022-10-20T13:09:20;0.20;;;0.10;;
15841;SDS011;8021;48.022;11.812;2022-10-20T13:11:58;0.30;;;0.20;;
15841;SDS011;8021;48.022;11.812;2022-10-20T13:14:27;0.20;;;0.20;;
15841;SDS011;8021;48.022;11.812;2022-10-20T13:16:58;0.20;;;0.20;;
15841;SDS011;8021;48.022;11.812;2022-10-20T13:19:29;0.20;;;0.10;;
15841;SDS011;8021;48.022;11.812;2022-10-20T13:22:05;0.20;;;0.20;;
15841;SDS011;8021;48.022;11.812;2022-10-20T13:24:50;0.30;;;0.20;;
15841;SDS011;8021;48.022;11.812;2022-10-20T13:27:22;0.10;;;0.10;;
15841;SDS011;8021;48.022;11.812;2022-10-20T13:29:49;0.20;;;0.13;;
15841;SDS011;8021;48.022;11.812;2022-10-20T13:32:19;0.20;;;0.20;;
15841;SDS011;8021;48.022;11.812;2022-10-20T13:34:49;0.20;;;0.20;;
15841;SDS011;8021;48.022;11.812;2022-10-20T13:37:21;0.20;;;0.20;;
15841;SDS011;8021;48.022;11.812;2022-10-20T13:39:55;0.30;;;0.20;;
15841;SDS011;8021;48.022;11.812;2022-10-20T13:42:27;0.20;;;0.20;;
15841;SDS011;8021;48.022;11.812;2022-10-20T13:45:01;0.20;;;0.10;;
15841;SDS011;8021;48.022;11.812;2022-10-20T13:47:38;0.20;;;0.10;;
15841;SDS011;8021;48.022;11.812;2022-10-20T13:50:08;0.20;;;0.20;;
15841;SDS011;8021;48.022;11.812;2022-10-20T13:52:37;0.20;;;0.20;;
15841;SDS011;8021;48.022;11.812;2022-10-20T13:55:07;0.20;;;0.10;;
15841;SDS011;8021;48.022;11.812;2022-10-20T13:57:45;0.20;;;0.20;;
15841;SDS011;8021;48.022;11.812;2022-10-20T14:00:21;0.30;;;0.20;;
15841;SDS011;8021;48.022;11.812;2022-10-20T14:02:58;0.20;;;0.20;;
15841;SDS011;8021;48.022;11.812;2022-10-20T14:05:26;0.20;;;0.10;;
15841;SDS011;8021;48.022;11.812;2022-10-20T14:07:54;0.20;;;0.20;;
15841;SDS011;8021;48.022;11.812;2022-10-20T14:10:22;0.30;;;0.20;;
15841;SDS011;8021;48.022;11.812;2022-10-20T14:12:50;0.25;;;0.20;;
15841;SDS011;8021;48.022;11.812;2022-10-20T14:15:19;0.30;;;0.20;;
15841;SDS011;8021;48.022;11.812;2022-10-20T14:17:53;0.20;;;0.20;;
15841;SDS011;8021;48.022;11.812;2022-10-20T14:20:23;0.20;;;0.20;;
15841;SDS011;8021;48.022;11.812;2022-10-20T14:22:50;0.30;;;0.20;;
15841;SDS011;8021;48.022;11.812;2022-10-20T14:25:20;0.20;;;0.20;;
15841;SDS011;8021;48.022;11.812;2022-10-20T14:27:48;0.20;;;0.17;;
15841;SDS011;8021;48.022;11.812;2022-10-20T14:30:18;0.30;;;0.20;;
15841;SDS011;8021;48.022;11.812;2022-10-20T14:33:12;0.20;;;0.20;;
15841;SDS011;8021;48.022;11.812;2022-10-20T14:35:42;0.30;;;0.20;;
15841;SDS011;8021;48.022;11.812;2022-10-20T14:38:14;0.20;;;0.20;;
15841;SDS011;8021;48.022;11.812;2022-10-20T14:40:47;0.20;;;0.20;;
15841;SDS011;8021;48.022;11.812;2022-10-20T14:43:15;0.20;;;0.20;;
15841;SDS011;8021;48.022;11.812;2022-10-20T14:45:50;0.30;;;0.20;;
15841;SDS011;8021;48.022;11.812;2022-10-20T14:48:17;0.20;;;0.20;;
15841;SDS011;8021;48.022;11.812;2022-10-20T14:50:46;0.30;;;0.30;;
15841;SDS011;8021;48.022;11.812;2022-10-20T14:53:15;0.20;;;0.20;;
15841;SDS011;8021;48.022;11.812;2022-10-20T14:55:42;0.20;;;0.20;;
15841;SDS011;8021;48.022;11.812;2022-10-20T14:58:25;0.20;;;0.20;;
15841;SDS011;8021;48.022;11.812;2022-10-20T15:03:36;0.20;;;0.20;;
15841;SDS011;8021;48.022;11.812;2022-10-20T15:06:07;0.20;;;0.17;;
15841;SDS011;8021;48.022;11.812;2022-10-20T15:09:04;0.30;;;0.20;;
15841;SDS011;8021;48.022;11.812;2022-10-20T15:11:31;0.30;;;0.10;;
15841;SDS011;8021;48.022;11.812;2022-10-20T15:13:59;0.20;;;0.10;;
15841;SDS011;8021;48.022;11.812;2022-10-20T15:16:31;0.20;;;0.20;;
15841;SDS011;8021;48.022;11.812;2022-10-20T15:21:47;0.28;;;0.25;;
15841;SDS011;8021;48.022;11.812;2022-10-20T15:24:15;0.30;;;0.22;;
15841;SDS011;8021;48.022;11.812;2022-10-20T15:26:42;0.20;;;0.20;;
15841;SDS011;8021;48.022;11.812;2022-10-20T15:29:10;0.30;;;0.20;;
15841;SDS011;8021;48.022;11.812;2022-10-20T15:31:37;0.30;;;0.20;;
15841;SDS011;8021;48.022;11.812;2022-10-20T15:34:07;0.20;;;0.20;;
15841;SDS011;8021;48.022;11.812;2022-10-20T15:36:35;0.28;;;0.20;;
15841;SDS011;8021;48.022;11.812;2022-10-20T15:39:09;0.30;;;0.20;;